Utopia, Ohio
Current Conditions -  °F | °C
As of 11:35 AM on Thursday 23 Oct 2014 (Local Time) from KFGX Reporting Station
Broken Clouds Broken Clouds  
Wind Chill: 52°   Ceiling: 2500
Heat Index: 52°   Visibility: 10mi
Dew Point: 42°   Wind: 5mph
Humidity: 67%   Direction: 100°E
Pressure: 30.26"   Gusts: NA
Location:  38.8698°N, 83.9081°W
Report Text: KFGX 231535Z AUTO 10004KT 10SM BKN025 11/05 A3026 RMK AO2 T01130053
Loading
Personal Weather Stations






























Interactive Weather Map
Tropical Storm Tracking
New forecast layout! Learn more

10-Day Weather Forecast

Advertisements
Track Severe Weather on mobile